Time;durP1;ratioP1;P1;durP2;ratioP2;P2;SDS_P1;SDS_P2;PMS_P1;PMS_P2;Temp;Humidity;BMP_temperature;BMP_pressure;BME280_temperature;BME280_humidity;BME280_pressure;Samples;Min_cycle;Max_cycle;Signal;HPM_P1;HPM_P2
2024/02/06 00:01:10;;;;;;;0.30;0.20;;;;;;;9.16;85.87;100665.19;5071142;28;20489;-51
2024/02/06 00:03:37;;;;;;;0.30;0.20;;;;;;;9.28;86.04;100659.69;5072399;28;20977;-52
2024/02/06 00:06:04;;;;;;;0.30;0.20;;;;;;;9.27;85.50;100660.59;5074562;28;20492;-52
2024/02/06 00:08:31;;;;;;;0.30;0.20;;;;;;;9.33;85.53;100651.69;5074511;28;20454;-51
2024/02/06 00:10:57;;;;;;;0.30;0.20;;;;;;;9.42;85.96;100656.78;5074671;28;20445;-52
2024/02/06 00:13:24;;;;;;;0.30;0.20;;;;;;;9.31;85.85;100651.69;5074209;28;20477;-52
2024/02/06 00:15:50;;;;;;;0.30;0.20;;;;;;;9.54;85.52;100647.75;5074802;28;20454;-52
2024/02/06 00:18:17;;;;;;;0.30;0.20;;;;;;;9.20;86.16;100649.22;5075012;28;20458;-51
2024/02/06 00:20:43;;;;;;;0.30;0.20;;;;;;;9.37;86.11;100646.28;5074139;28;20933;-53
2024/02/06 00:23:10;;;;;;;0.30;0.20;;;;;;;9.32;86.61;100636.63;5074355;28;20462;-52
2024/02/06 00:25:36;;;;;;;0.30;0.20;;;;;;;9.14;86.84;100644.00;5074503;28;20449;-53
2024/02/06 00:28:04;;;;;;;0.30;0.20;;;;;;;9.31;86.48;100641.06;5073007;28;20445;-53
2024/02/06 00:30:31;;;;;;;0.30;0.20;;;;;;;9.14;87.14;100638.72;5074657;28;20452;-51
2024/02/06 00:32:57;;;;;;;0.30;0.20;;;;;;;9.31;87.03;100635.75;5074340;28;20549;-52
2024/02/06 00:35:24;;;;;;;0.30;0.20;;;;;;;9.36;86.83;100638.34;5056777;28;20449;-51
2024/02/06 00:37:53;;;;;;;0.30;0.20;;;;;;;9.18;86.99;100636.88;5065569;28;20486;-52
2024/02/06 00:40:19;;;;;;;0.30;0.20;;;;;;;9.27;86.80;100635.84;5067665;28;20504;-52
2024/02/06 00:42:46;;;;;;;0.30;0.20;;;;;;;9.24;87.43;100633.25;5074518;28;20527;-52
2024/02/06 00:45:12;;;;;;;0.30;0.20;;;;;;;9.29;87.12;100626.09;5074756;28;20453;-53
2024/02/06 00:47:39;;;;;;;0.30;0.20;;;;;;;9.12;87.90;100629.91;5074084;28;20883;-53
2024/02/06 00:50:06;;;;;;;0.30;0.20;;;;;;;9.17;87.61;100627.16;5074483;28;20809;-52
2024/02/06 00:52:33;;;;;;;0.30;0.20;;;;;;;9.13;87.86;100631.66;5061726;28;20452;-53
2024/02/06 00:55:00;;;;;;;0.30;0.20;;;;;;;9.11;87.77;100619.34;5050344;28;20447;-52
2024/02/06 00:57:27;;;;;;;0.30;0.20;;;;;;;9.21;87.58;100615.63;5073993;28;20506;-52
2024/02/06 00:59:53;;;;;;;0.30;0.20;;;;;;;9.13;87.86;100606.91;5074398;28;20541;-53
2024/02/06 01:02:20;;;;;;;0.30;0.20;;;;;;;9.04;88.00;100609.72;5073929;28;20823;-52
2024/02/06 01:04:46;;;;;;;0.30;0.20;;;;;;;9.11;88.71;100606.94;5073918;28;20453;-53
2024/02/06 01:07:13;;;;;;;0.30;0.20;;;;;;;9.13;88.57;100604.25;5073829;28;20449;-53
2024/02/06 01:09:39;;;;;;;0.30;0.20;;;;;;;9.19;88.46;100601.53;5074440;28;20458;-52
2024/02/06 01:12:06;;;;;;;0.30;0.20;;;;;;;9.24;88.53;100601.44;5047842;28;20950;-52
2024/02/06 01:14:32;;;;;;;0.30;0.20;;;;;;;9.08;88.76;100601.72;5073778;28;20987;-51
2024/02/06 01:16:59;;;;;;;0.30;0.20;;;;;;;9.00;89.33;100603.59;5060529;28;21079;-53
2024/02/06 01:19:25;;;;;;;0.30;0.20;;;;;;;9.31;88.82;100589.78;5056287;28;20477;-52
2024/02/06 01:21:52;;;;;;;0.30;0.20;;;;;;;9.15;88.25;100590.06;5073954;28;20490;-53
2024/02/06 01:24:18;;;;;;;0.30;0.20;;;;;;;9.09;88.20;100584.88;5052445;28;20471;-52
2024/02/06 01:26:45;;;;;;;0.30;0.20;;;;;;;8.92;88.31;100575.50;5072862;28;20446;-51
2024/02/06 01:29:11;;;;;;;0.30;0.20;;;;;;;8.90;88.68;100570.19;5073271;28;20446;-52
2024/02/06 01:31:38;;;;;;;0.30;0.20;;;;;;;9.04;87.87;100572.59;5073532;28;20545;-52
2024/02/06 01:34:05;;;;;;;0.30;0.20;;;;;;;9.14;88.05;100574.19;5073374;28;20473;-51
2024/02/06 01:36:34;;;;;;;0.30;0.20;;;;;;;8.95;87.64;100573.66;5073293;28;20829;-52
2024/02/06 01:39:01;;;;;;;0.30;0.20;;;;;;;9.09;87.46;100568.09;5056669;28;20505;-52
2024/02/06 01:41:27;;;;;;;0.30;0.20;;;;;;;9.09;87.41;100574.28;5073516;28;20576;-51
2024/02/06 01:43:54;;;;;;;0.30;0.20;;;;;;;9.10;87.13;100568.06;5073342;28;20508;-51
2024/02/06 01:46:21;;;;;;;0.30;0.20;;;;;;;9.14;87.18;100575.06;5073373;28;20901;-51
2024/02/06 01:48:48;;;;;;;0.30;0.20;;;;;;;9.14;87.04;100571.53;5073214;28;20464;-53
2024/02/06 01:51:18;;;;;;;0.30;0.20;;;;;;;9.12;87.25;100565.41;5073094;28;20453;-51
2024/02/06 01:53:46;;;;;;;0.30;0.20;;;;;;;9.14;87.24;100566.22;5055136;28;21031;-52
2024/02/06 01:56:13;;;;;;;0.30;0.20;;;;;;;9.06;86.97;100571.69;5063702;28;20478;-51
2024/02/06 01:58:40;;;;;;;0.30;0.20;;;;;;;8.99;87.60;100564.75;5073006;28;20454;-51
2024/02/06 02:01:07;;;;;;;0.30;0.20;;;;;;;9.08;87.66;100569.88;5072859;28;20482;-51
2024/02/06 02:03:35;;;;;;;0.30;0.20;;;;;;;9.18;87.23;100573.22;5072453;28;20474;-51
2024/02/06 02:06:01;;;;;;;0.30;0.20;;;;;;;9.15;87.24;100570.63;5072517;28;20449;-51
2024/02/06 02:08:33;;;;;;;0.30;0.20;;;;;;;9.22;87.04;100574.06;5072554;28;20824;-51
2024/02/06 02:10:59;;;;;;;0.30;0.20;;;;;;;9.13;87.65;100565.38;5073569;28;20457;-52
2024/02/06 02:13:26;;;;;;;0.30;0.20;;;;;;;9.06;88.22;100566.38;5073389;28;20821;-52
2024/02/06 02:15:53;;;;;;;0.30;0.20;;;;;;;9.15;88.28;100568.84;5073531;28;20450;-53
2024/02/06 02:18:20;;;;;;;0.30;0.20;;;;;;;9.10;88.89;100567.19;5073246;28;20453;-53
2024/02/06 02:20:46;;;;;;;0.30;0.20;;;;;;;9.07;88.07;100560.19;5073596;28;20624;-52
2024/02/06 02:23:13;;;;;;;0.30;0.20;;;;;;;9.16;88.46;100562.66;5073074;28;21045;-52
2024/02/06 02:25:51;;;;;;;0.30;0.20;;;;;;;8.89;88.94;100555.19;5068842;28;20532;-52
2024/02/06 02:28:17;;;;;;;0.30;0.20;;;;;;;9.02;89.40;100545.25;5071990;28;20507;-52
2024/02/06 02:30:45;;;;;;;0.30;0.20;;;;;;;9.00;89.54;100549.69;5073187;28;20454;-52
2024/02/06 02:33:12;;;;;;;0.30;0.20;;;;;;;9.11;89.49;100545.09;5072929;28;20465;-53
2024/02/06 02:35:39;;;;;;;0.30;0.20;;;;;;;9.06;89.53;100545.19;5073016;28;20453;-52
2024/02/06 02:38:05;;;;;;;0.30;0.20;;;;;;;9.03;89.73;100541.69;5044464;28;20465;-53
2024/02/06 02:40:32;;;;;;;0.30;0.20;;;;;;;8.94;90.20;100533.91;5067586;28;20515;-53
2024/02/06 02:42:59;;;;;;;0.30;0.20;;;;;;;9.08;90.19;100527.47;5055458;28;20492;-52
2024/02/06 02:45:25;;;;;;;0.30;0.20;;;;;;;8.90;90.54;100526.00;5072690;28;20445;-52
2024/02/06 02:47:52;;;;;;;0.30;0.20;;;;;;;8.97;90.62;100529.44;5072935;28;20449;-52
2024/02/06 02:50:18;;;;;;;0.30;0.20;;;;;;;8.98;90.61;100523.22;5072925;28;20450;-51
2024/02/06 02:55:20;;;;;;;0.30;0.20;;;;;;;8.96;91.12;100513.56;4959516;28;20570;-50
2024/02/06 02:57:46;;;;;;;0.30;0.20;;;;;;;8.90;91.38;100517.16;4973074;28;20464;-50
2024/02/06 03:00:14;;;;;;;0.30;0.20;;;;;;;9.10;90.55;100516.81;4959916;28;20915;-50
2024/02/06 03:02:40;;;;;;;0.30;0.20;;;;;;;8.87;91.35;100510.16;4973367;28;20577;-50
2024/02/06 03:05:08;;;;;;;0.30;0.20;;;;;;;8.85;91.64;100501.34;4973153;28;20474;-50
2024/02/06 03:07:34;;;;;;;0.30;0.20;;;;;;;8.84;91.79;100512.00;4973097;28;20458;-49
2024/02/06 03:10:01;;;;;;;0.30;0.20;;;;;;;8.91;92.10;100513.66;4972944;28;20486;-50
2024/02/06 03:12:31;;;;;;;0.30;0.20;;;;;;;8.88;92.20;100508.38;4972891;28;20974;-50
2024/02/06 03:14:59;;;;;;;0.30;0.20;;;;;;;8.83;92.54;100510.25;4973026;28;20471;-50
2024/02/06 03:17:26;;;;;;;0.30;0.20;;;;;;;9.00;92.19;100505.50;4973026;28;20537;-50
2024/02/06 03:19:53;;;;;;;0.30;0.20;;;;;;;8.87;92.82;100507.50;4972755;28;20943;-50
2024/02/06 03:22:21;;;;;;;0.30;0.20;;;;;;;8.72;93.28;100497.19;4972878;28;20500;-50
2024/02/06 03:24:47;;;;;;;0.30;0.20;;;;;;;8.60;94.29;100506.22;4970550;28;20471;-50
2024/02/06 03:27:15;;;;;;;0.30;0.20;;;;;;;8.75;93.63;100501.53;4973135;28;20451;-49
2024/02/06 03:29:42;;;;;;;0.30;0.20;;;;;;;8.76;93.73;100508.59;4973025;28;20481;-49
2024/02/06 03:32:09;;;;;;;0.30;0.20;;;;;;;8.74;93.96;100505.97;4950607;28;20546;-50
2024/02/06 03:34:36;;;;;;;0.30;0.20;;;;;;;8.91;93.60;100505.69;4970695;28;20474;-50
2024/02/06 03:37:03;;;;;;;0.30;0.20;;;;;;;8.70;93.25;100514.88;4970497;28;20513;-50
2024/02/06 03:39:29;;;;;;;0.30;0.20;;;;;;;8.83;93.70;100504.94;4975126;28;20450;-50
2024/02/06 03:41:56;;;;;;;0.30;0.20;;;;;;;8.78;94.06;100512.13;4976497;28;20487;-50
2024/02/06 03:44:22;;;;;;;0.30;0.20;;;;;;;8.85;94.30;100508.44;4965030;28;21056;-50
2024/02/06 03:46:49;;;;;;;0.30;0.20;;;;;;;8.77;93.96;100515.63;4962757;28;20490;-51
2024/02/06 03:49:15;;;;;;;0.30;0.20;;;;;;;8.82;93.57;100505.84;4965055;28;20462;-50
2024/02/06 03:51:42;;;;;;;0.30;0.20;;;;;;;8.64;93.98;100522.09;4962254;28;20537;-50
2024/02/06 03:54:08;;;;;;;0.30;0.20;;;;;;;8.72;94.15;100528.97;4997021;28;20516;-50
2024/02/06 03:56:35;;;;;;;0.30;0.20;;;;;;;8.74;93.95;100521.00;5015591;28;20551;-50
2024/02/06 03:59:01;;;;;;;0.30;0.20;;;;;;;8.74;94.03;100519.22;5015503;28;20535;-51
2024/02/06 04:01:28;;;;;;;0.30;0.20;;;;;;;8.64;94.67;100517.66;5015778;28;20488;-51
2024/02/06 04:03:54;;;;;;;0.30;0.20;;;;;;;8.71;94.68;100516.63;5016077;28;20481;-51
2024/02/06 04:06:21;;;;;;;0.30;0.20;;;;;;;8.78;94.11;100506.81;5016017;28;20480;-50
2024/02/06 04:08:48;;;;;;;0.30;0.20;;;;;;;8.69;94.20;100510.50;5014855;28;20452;-50
2024/02/06 04:11:14;;;;;;;0.30;0.20;;;;;;;8.43;95.02;100500.34;5015290;28;20536;-50
2024/02/06 04:13:41;;;;;;;0.30;0.20;;;;;;;8.51;95.05;100501.09;5015061;28;20928;-50
2024/02/06 04:16:08;;;;;;;0.30;0.20;;;;;;;8.73;94.53;100503.34;5015104;28;20456;-51
2024/02/06 04:18:36;;;;;;;0.30;0.20;;;;;;;8.74;94.43;100505.97;5008857;28;20458;-50
2024/02/06 04:21:03;;;;;;;0.30;0.20;;;;;;;8.62;94.61;100508.84;5008247;28;20449;-50
2024/02/06 04:23:29;;;;;;;0.30;0.20;;;;;;;8.81;94.43;100515.59;5014671;28;20476;-51
2024/02/06 04:25:56;;;;;;;0.30;0.20;;;;;;;8.77;94.20;100511.25;5010689;28;20622;-50
2024/02/06 04:28:22;;;;;;;0.30;0.20;;;;;;;8.73;94.02;100506.00;5002419;28;20457;-51
2024/02/06 04:30:49;;;;;;;0.30;0.20;;;;;;;8.74;94.10;100505.09;5014714;28;20452;-50
2024/02/06 04:33:15;;;;;;;0.30;0.20;;;;;;;8.69;94.30;100497.25;5014584;28;20989;-50
2024/02/06 04:35:42;;;;;;;0.30;0.20;;;;;;;8.76;93.93;100504.16;5014314;28;20452;-50
2024/02/06 04:38:08;;;;;;;0.30;0.20;;;;;;;8.80;94.10;100495.28;5011137;28;20571;-50
2024/02/06 04:40:35;;;;;;;0.30;0.20;;;;;;;8.73;94.03;100490.97;5014299;28;21062;-49
2024/02/06 04:43:02;;;;;;;0.30;0.20;;;;;;;8.74;94.71;100492.72;5014540;28;20488;-49
2024/02/06 04:45:28;;;;;;;0.30;0.20;;;;;;;8.69;94.54;100483.13;5014373;28;20448;-50
2024/02/06 04:47:55;;;;;;;0.30;0.20;;;;;;;8.69;94.98;100483.13;5014509;28;20448;-50
2024/02/06 04:50:21;;;;;;;0.30;0.20;;;;;;;8.71;94.80;100478.66;5013375;28;20979;-50
2024/02/06 04:52:48;;;;;;;0.30;0.20;;;;;;;8.75;94.46;100472.38;5014006;28;20503;-51
2024/02/06 04:55:15;;;;;;;0.30;0.20;;;;;;;8.86;94.17;100470.44;4996839;28;20496;-51
2024/02/06 04:57:41;;;;;;;0.30;0.20;;;;;;;8.73;94.47;100483.03;5014303;28;20453;-51
2024/02/06 05:00:13;;;;;;;0.30;0.20;;;;;;;8.78;94.40;100465.28;5014131;28;20448;-51
2024/02/06 05:02:40;;;;;;;0.30;0.20;;;;;;;8.78;94.31;100462.63;5014091;28;20491;-51
2024/02/06 05:05:07;;;;;;;0.30;0.20;;;;;;;8.74;94.57;100468.00;5013897;28;20507;-50
2024/02/06 05:07:33;;;;;;;0.30;0.20;;;;;;;8.58;94.42;100462.09;5014095;28;21008;-50
2024/02/06 05:10:00;;;;;;;0.30;0.20;;;;;;;8.76;94.49;100450.28;4987998;28;21128;-50
2024/02/06 05:12:26;;;;;;;0.30;0.20;;;;;;;8.74;94.45;100455.63;5013976;28;20459;-51
2024/02/06 05:14:53;;;;;;;0.30;0.20;;;;;;;8.76;94.68;100450.28;5013787;28;20555;-51
2024/02/06 05:17:19;;;;;;;0.30;0.20;;;;;;;8.70;94.65;100445.13;4995490;28;20957;-50
2024/02/06 05:19:46;;;;;;;0.30;0.20;;;;;;;8.65;94.87;100450.50;5006357;28;20543;-50
2024/02/06 05:22:13;;;;;;;0.30;0.20;;;;;;;8.59;94.40;100440.00;5013745;28;20492;-50
2024/02/06 05:24:40;;;;;;;0.30;0.20;;;;;;;8.50;95.35;100441.06;5011143;28;20515;-51
2024/02/06 05:27:07;;;;;;;1.43;1.43;;;;;;;8.78;94.84;100438.78;5003645;28;20450;-51
2024/02/06 05:29:35;;;;;;;0.30;0.20;;;;;;;8.74;94.08;100439.72;4993238;28;20814;-52
2024/02/06 05:32:01;;;;;;;0.30;0.20;;;;;;;8.65;94.66;100439.91;4993096;28;20474;-50
2024/02/06 05:34:28;;;;;;;0.30;0.20;;;;;;;8.69;94.64;100438.06;5008455;28;20472;-51
2024/02/06 05:36:54;;;;;;;0.83;0.80;;;;;;;8.53;94.84;100441.00;5012404;28;20456;-50
2024/02/06 05:39:21;;;;;;;0.30;0.20;;;;;;;8.68;94.86;100434.53;5011710;28;20463;-51
2024/02/06 05:41:47;;;;;;;0.30;0.20;;;;;;;8.71;94.57;100426.53;5013227;28;20559;-51
2024/02/06 05:44:14;;;;;;;0.30;0.20;;;;;;;8.56;94.43;100434.78;5013359;28;20503;-51
2024/02/06 05:46:41;;;;;;;0.30;0.20;;;;;;;8.81;94.15;100428.13;5013240;28;20444;-52
2024/02/06 05:49:07;;;;;;;0.30;0.20;;;;;;;8.76;94.00;100423.78;5013223;28;20448;-52
2024/02/06 05:51:34;;;;;;;0.30;0.20;;;;;;;8.61;94.48;100419.66;5013359;28;20549;-50
2024/02/06 05:54:00;;;;;;;0.30;0.20;;;;;;;8.86;93.91;100422.72;5012986;28;20484;-51
2024/02/06 05:56:27;;;;;;;0.30;0.20;;;;;;;8.85;93.58;100413.88;5013196;28;20483;-51
2024/02/06 05:58:53;;;;;;;0.30;0.20;;;;;;;8.69;93.61;100408.91;5012940;28;20525;-52
2024/02/06 06:01:20;;;;;;;0.30;0.20;;;;;;;8.75;93.94;100414.09;5006867;28;20456;-50
2024/02/06 06:03:48;;;;;;;0.30;0.20;;;;;;;8.59;94.38;100419.69;5010581;28;20492;-50
2024/02/06 06:06:14;;;;;;;0.30;0.20;;;;;;;8.63;94.38;100416.97;5012795;28;21043;-50
2024/02/06 06:08:41;;;;;;;0.30;0.20;;;;;;;8.69;94.78;100415.09;5012486;28;20540;-50
2024/02/06 06:11:08;;;;;;;0.30;0.20;;;;;;;8.78;94.47;100412.28;5012759;28;20452;-50
2024/02/06 06:13:34;;;;;;;0.30;0.20;;;;;;;8.73;94.02;100424.72;5012522;28;20563;-51
2024/02/06 06:16:01;;;;;;;0.30;0.20;;;;;;;8.79;93.93;100424.63;5012884;28;20552;-50
2024/02/06 06:18:27;;;;;;;0.30;0.20;;;;;;;8.78;94.00;100428.19;5012748;28;20968;-51
2024/02/06 06:20:54;;;;;;;0.30;0.20;;;;;;;8.64;93.68;100432.00;4988386;28;20557;-50
2024/02/06 06:23:20;;;;;;;0.30;0.20;;;;;;;8.72;93.69;100433.59;5011166;28;20471;-49
2024/02/06 06:25:47;;;;;;;0.30;0.20;;;;;;;8.86;93.96;100425.38;5009870;28;20484;-51
2024/02/06 06:28:13;;;;;;;0.30;0.20;;;;;;;8.80;93.85;100428.16;5012302;28;20828;-51
2024/02/06 06:30:40;;;;;;;0.30;0.20;;;;;;;8.91;92.91;100423.53;5012333;28;20898;-51
2024/02/06 06:33:06;;;;;;;0.30;0.20;;;;;;;8.94;93.38;100428.75;5012370;28;20487;-51
2024/02/06 06:35:33;;;;;;;0.30;0.20;;;;;;;8.97;92.84;100426.03;4995279;28;20471;-51
2024/02/06 06:37:59;;;;;;;0.30;0.20;;;;;;;9.03;92.09;100423.25;5009118;28;21015;-50
2024/02/06 06:40:26;;;;;;;0.30;0.20;;;;;;;8.82;92.93;100418.38;5012554;28;20463;-50
2024/02/06 06:42:53;;;;;;;0.30;0.20;;;;;;;8.82;93.33;100421.03;4995182;28;20500;-50
2024/02/06 06:45:20;;;;;;;0.30;0.20;;;;;;;8.77;93.21;100421.13;5012561;28;20476;-50
2024/02/06 06:47:46;;;;;;;0.30;0.20;;;;;;;8.92;93.24;100417.31;4995067;28;20503;-51
2024/02/06 06:50:13;;;;;;;0.30;0.20;;;;;;;8.93;93.00;100410.22;5012249;28;20456;-50
2024/02/06 06:52:41;;;;;;;0.30;0.20;;;;;;;8.89;93.23;100414.69;5012215;28;20526;-51
2024/02/06 06:55:08;;;;;;;0.30;0.20;;;;;;;9.08;92.67;100416.09;5003141;28;20469;-51
2024/02/06 06:57:37;;;;;;;0.30;0.20;;;;;;;9.06;92.84;100412.59;5011966;28;20449;-52
2024/02/06 07:00:05;;;;;;;0.30;0.20;;;;;;;8.92;92.59;100409.34;5012152;28;20479;-51
2024/02/06 07:02:32;;;;;;;0.40;0.20;;;;;;;8.99;92.78;100407.44;5011917;28;20492;-51
2024/02/06 07:05:01;;;;;;;0.30;0.20;;;;;;;8.99;92.77;100405.66;4985553;28;20485;-51
2024/02/06 07:07:28;;;;;;;0.30;0.20;;;;;;;9.00;93.06;100399.44;5011722;28;20484;-52
2024/02/06 07:09:54;;;;;;;0.30;0.20;;;;;;;8.89;92.88;100398.78;5011600;28;20548;-50
2024/02/06 07:12:21;;;;;;;0.30;0.20;;;;;;;8.85;93.24;100402.41;5001747;28;20453;-50
2024/02/06 07:14:47;;;;;;;0.30;0.20;;;;;;;9.01;93.32;100402.97;5011436;28;20999;-52
2024/02/06 07:17:14;;;;;;;0.30;0.20;;;;;;;9.01;92.98;100403.84;5011926;28;20456;-51
2024/02/06 07:19:40;;;;;;;0.30;0.20;;;;;;;8.96;92.87;100405.72;5011712;28;20491;-52
2024/02/06 07:22:07;;;;;;;0.30;0.20;;;;;;;8.90;93.28;100395.22;5011454;28;20469;-52
2024/02/06 07:24:33;;;;;;;0.30;0.20;;;;;;;9.09;93.00;100388.66;5007488;28;21136;-51
2024/02/06 07:27:00;;;;;;;0.30;0.20;;;;;;;9.02;93.59;100396.78;5011141;28;20507;-52
2024/02/06 07:29:27;;;;;;;0.30;0.20;;;;;;;9.02;93.77;100397.63;4994355;28;20597;-51
2024/02/06 07:31:53;;;;;;;0.30;0.20;;;;;;;9.01;93.15;100393.25;5011749;28;20535;-52
2024/02/06 07:34:20;;;;;;;0.30;0.20;;;;;;;9.15;93.37;100395.59;5004320;28;20469;-51
2024/02/06 07:36:46;;;;;;;0.30;0.20;;;;;;;9.17;92.32;100404.41;5001833;28;20499;-50
2024/02/06 07:39:13;;;;;;;0.30;0.20;;;;;;;9.29;92.15;100405.91;5007904;28;20964;-51
2024/02/06 07:41:40;;;;;;;0.30;0.20;;;;;;;9.44;91.41;100409.13;5011583;28;20603;-51
2024/02/06 07:44:07;;;;;;;0.30;0.20;;;;;;;9.22;92.37;100409.63;5011401;28;20841;-51
2024/02/06 07:46:33;;;;;;;0.30;0.20;;;;;;;9.24;92.17;100402.50;5011566;28;20459;-52
2024/02/06 07:49:00;;;;;;;0.30;0.20;;;;;;;9.03;92.53;100410.00;5011384;28;20455;-51
2024/02/06 07:51:26;;;;;;;0.30;0.20;;;;;;;9.19;92.76;100403.50;5011516;28;20941;-51
2024/02/06 07:53:54;;;;;;;0.30;0.20;;;;;;;9.18;92.56;100411.44;5010941;28;20564;-52
2024/02/06 07:56:20;;;;;;;0.30;0.20;;;;;;;9.33;92.03;100407.63;4994409;28;20507;-51
2024/02/06 07:58:47;;;;;;;0.30;0.20;;;;;;;9.15;92.62;100400.91;5011136;28;20937;-51
2024/02/06 08:01:17;;;;;;;0.30;0.20;;;;;;;9.43;91.80;100395.88;5011502;28;20456;-51
2024/02/06 08:03:44;;;;;;;0.30;0.20;;;;;;;9.25;91.99;100396.28;5011081;28;20500;-51
2024/02/06 08:06:10;;;;;;;0.30;0.20;;;;;;;9.41;91.85;100395.91;5011272;28;20510;-51
2024/02/06 08:08:37;;;;;;;0.30;0.20;;;;;;;9.23;92.07;100404.28;5011254;28;20455;-50
2024/02/06 08:11:04;;;;;;;0.30;0.20;;;;;;;9.09;92.99;100404.56;5000372;28;20541;-50
2024/02/06 08:13:30;;;;;;;0.30;0.20;;;;;;;9.45;92.36;100400.25;5010712;28;20523;-51
2024/02/06 08:15:57;;;;;;;0.30;0.20;;;;;;;9.36;92.02;100395.16;5011449;28;20481;-52
2024/02/06 08:18:23;;;;;;;0.30;0.20;;;;;;;9.33;91.78;100402.31;5011292;28;20913;-51
2024/02/06 08:20:50;;;;;;;0.30;0.20;;;;;;;9.36;92.13;100397.81;5011326;28;20535;-52
2024/02/06 08:23:16;;;;;;;0.30;0.20;;;;;;;9.40;91.49;100396.84;5010926;28;20496;-50
2024/02/06 08:25:43;;;;;;;0.30;0.20;;;;;;;9.70;91.12;100399.69;5010541;28;20510;-51
2024/02/06 08:28:09;;;;;;;0.30;0.20;;;;;;;9.42;90.71;100394.13;5014760;28;20449;-51
2024/02/06 08:30:36;;;;;;;0.30;0.20;;;;;;;9.45;90.93;100388.75;5015025;28;20463;-52
2024/02/06 08:33:03;;;;;;;0.30;0.20;;;;;;;9.40;91.45;100386.22;5014622;28;20478;-51
2024/02/06 08:35:29;;;;;;;0.30;0.20;;;;;;;9.63;91.05;100387.50;5014612;28;20944;-51
2024/02/06 08:37:56;;;;;;;0.30;0.20;;;;;;;9.70;90.44;100389.06;5011309;28;20455;-51
2024/02/06 08:40:23;;;;;;;0.30;0.20;;;;;;;9.48;91.00;100384.28;5014958;28;20455;-52
2024/02/06 08:42:49;;;;;;;0.30;0.20;;;;;;;9.67;90.55;100382.06;5014350;28;20492;-50
2024/02/06 08:45:16;;;;;;;0.30;0.20;;;;;;;9.49;91.12;100372.75;5014605;28;20453;-51
2024/02/06 08:47:42;;;;;;;0.60;0.60;;;;;;;9.68;90.36;100365.22;5014487;28;20457;-51
2024/02/06 08:50:10;;;;;;;0.30;0.20;;;;;;;9.74;90.24;100364.22;5014607;28;20543;-50
2024/02/06 08:52:36;;;;;;;0.30;0.20;;;;;;;9.59;90.36;100357.47;5014302;28;20456;-51
2024/02/06 08:55:03;;;;;;;0.30;0.20;;;;;;;9.71;90.44;100357.19;5005997;28;20474;-50
2024/02/06 08:57:30;;;;;;;0.30;0.20;;;;;;;9.85;89.99;100355.97;5014156;28;20456;-50
2024/02/06 08:59:56;;;;;;;0.30;0.20;;;;;;;9.85;89.70;100370.13;5014162;28;20530;-50
2024/02/06 09:02:24;;;;;;;0.30;0.20;;;;;;;9.87;89.86;100370.09;4988460;28;20567;-50
2024/02/06 09:04:53;;;;;;;0.30;0.20;;;;;;;9.93;89.81;100367.28;5013899;28;20473;-50
2024/02/06 09:07:24;;;;;;;0.30;0.20;;;;;;;9.79;90.29;100365.84;5014035;28;20457;-50
2024/02/06 09:09:54;;;;;;;0.30;0.20;;;;;;;9.78;90.18;100371.19;5013936;28;20953;-50
2024/02/06 09:12:22;;;;;;;0.30;0.20;;;;;;;9.89;90.31;100363.84;5013780;28;20491;-50
2024/02/06 09:14:48;;;;;;;0.30;0.20;;;;;;;9.97;89.84;100372.47;5013586;28;20472;-50
2024/02/06 09:17:15;;;;;;;0.30;0.20;;;;;;;9.93;90.00;100365.50;5013632;28;20527;-50
2024/02/06 09:19:41;;;;;;;0.30;0.20;;;;;;;9.83;90.52;100366.63;5013800;28;21257;-51
2024/02/06 09:22:08;;;;;;;0.30;0.20;;;;;;;9.84;90.88;100365.72;5013836;28;20448;-50
2024/02/06 09:24:35;;;;;;;0.30;0.20;;;;;;;10.04;90.06;100368.78;5010596;28;21028;-50
2024/02/06 09:27:01;;;;;;;0.30;0.20;;;;;;;9.85;90.51;100372.78;5013667;28;20969;-50
2024/02/06 09:29:28;;;;;;;0.30;0.20;;;;;;;9.92;90.29;100370.88;4987230;28;20502;-50
2024/02/06 09:31:54;;;;;;;0.30;0.20;;;;;;;9.96;90.53;100368.09;5014051;28;20456;-50
2024/02/06 09:34:21;;;;;;;0.30;0.20;;;;;;;9.93;90.49;100365.50;5013787;28;20515;-50
2024/02/06 09:36:48;;;;;;;0.30;0.20;;;;;;;9.87;91.08;100364.78;5013050;28;20475;-50
2024/02/06 09:39:14;;;;;;;0.30;0.20;;;;;;;9.87;90.60;100371.00;5003651;28;20461;-51
2024/02/06 09:41:44;;;;;;;0.30;0.20;;;;;;;9.99;90.14;100348.53;4994727;28;20484;-50
2024/02/06 09:44:11;;;;;;;0.30;0.20;;;;;;;9.96;90.14;100356.59;5013080;28;20496;-50
2024/02/06 09:46:39;;;;;;;0.30;0.20;;;;;;;9.90;90.81;100360.28;5013648;28;20464;-50
2024/02/06 09:49:06;;;;;;;0.30;0.20;;;;;;;10.09;89.78;100360.69;5013123;28;20448;-50
2024/02/06 09:51:38;;;;;;;0.30;0.20;;;;;;;10.11;90.15;100364.16;5013205;28;21032;-50
2024/02/06 09:54:07;;;;;;;0.30;0.20;;;;;;;9.96;90.23;100370.75;5011300;28;20551;-50
2024/02/06 09:56:35;;;;;;;0.30;0.20;;;;;;;9.91;91.00;100361.16;5006284;28;20459;-50
2024/02/06 09:59:05;;;;;;;0.30;0.20;;;;;;;10.09;90.13;100369.53;5012915;28;20448;-50
2024/02/06 10:01:37;;;;;;;0.30;0.20;;;;;;;9.94;90.18;100361.06;5013196;28;20448;-50
2024/02/06 10:04:06;;;;;;;0.30;0.20;;;;;;;10.15;89.81;100365.00;4988886;28;20496;-50
2024/02/06 10:06:34;;;;;;;0.30;0.20;;;;;;;10.04;90.38;100370.56;5012917;28;20467;-50
2024/02/06 10:09:02;;;;;;;0.30;0.20;;;;;;;10.00;90.06;100360.91;5012819;28;20452;-49
2024/02/06 10:11:33;;;;;;;0.30;0.20;;;;;;;9.90;90.23;100359.41;5012772;28;20479;-50
2024/02/06 10:14:00;;;;;;;0.30;0.20;;;;;;;10.00;90.14;100374.19;5012943;28;20527;-50
2024/02/06 10:16:27;;;;;;;0.30;0.20;;;;;;;10.07;90.17;100378.44;5012619;28;20527;-50
2024/02/06 10:18:55;;;;;;;0.40;0.37;;;;;;;10.10;89.65;100391.66;5012824;28;20485;-50
2024/02/06 10:21:23;;;;;;;0.30;0.20;;;;;;;10.16;89.70;100390.63;5006289;28;20450;-50
2024/02/06 10:24:02;;;;;;;0.30;0.20;;;;;;;10.05;90.00;100388.25;4994313;28;20492;-50
2024/02/06 10:26:28;;;;;;;0.30;0.20;;;;;;;10.07;89.19;100391.72;5011431;28;20456;-50
2024/02/06 10:29:11;;;;;;;0.30;0.20;;;;;;;10.18;89.68;100389.69;5012681;28;20456;-50
2024/02/06 10:31:37;;;;;;;0.30;0.20;;;;;;;10.14;89.38;100392.44;5012572;28;20538;-50
2024/02/06 10:34:11;;;;;;;0.30;0.20;;;;;;;10.13;89.51;100394.22;5012201;28;20491;-50
2024/02/06 10:36:39;;;;;;;0.30;0.20;;;;;;;10.23;89.14;100393.13;5012804;28;20973;-51
2024/02/06 10:39:08;;;;;;;0.30;0.20;;;;;;;9.90;90.31;100384.19;5009079;28;20476;-50
2024/02/06 10:41:35;;;;;;;0.30;0.20;;;;;;;10.19;89.76;100393.22;5012552;28;20463;-50
2024/02/06 10:44:22;;;;;;;0.30;0.20;;;;;;;10.09;90.05;100385.47;5012105;28;20492;-50
2024/02/06 10:47:02;;;;;;;0.30;0.20;;;;;;;10.05;89.98;100382.94;5012053;28;20448;-50
2024/02/06 10:49:32;;;;;;;0.30;0.20;;;;;;;10.28;89.76;100375.28;5011740;28;20479;-50
2024/02/06 10:52:07;;;;;;;0.30;0.20;;;;;;;10.05;90.38;100380.28;5012264;28;20457;-50
2024/02/06 10:54:36;;;;;;;0.30;0.20;;;;;;;10.23;89.38;100376.31;5006239;28;20514;-50
2024/02/06 10:57:07;;;;;;;0.30;0.20;;;;;;;10.08;89.83;100369.56;5009448;28;20448;-51
2024/02/06 10:59:49;;;;;;;0.30;0.20;;;;;;;10.02;90.20;100373.25;5012192;28;20451;-50
2024/02/06 11:02:24;;;;;;;0.30;0.20;;;;;;;9.97;90.58;100363.66;4999066;28;20627;-50
2024/02/06 11:05:14;;;;;;;0.30;0.20;;;;;;;10.13;90.01;100364.13;5012069;28;21012;-50
2024/02/06 11:07:58;;;;;;;0.30;0.20;;;;;;;10.23;89.65;100350.59;5011688;28;20985;-50
2024/02/06 11:10:36;;;;;;;0.30;0.20;;;;;;;10.14;89.73;100340.19;5011870;28;20452;-50
2024/02/06 11:13:07;;;;;;;0.70;0.70;;;;;;;10.24;89.27;100339.06;5011855;28;20496;-50
2024/02/06 11:15:40;;;;;;;0.30;0.20;;;;;;;10.22;89.52;100324.97;5011978;28;20502;-50
2024/02/06 11:18:12;;;;;;;0.30;0.20;;;;;;;10.38;88.91;100328.94;5011522;28;20463;-50
2024/02/06 11:20:41;;;;;;;0.30;0.20;;;;;;;10.33;89.08;100306.09;5012125;28;20449;-50
2024/02/06 11:23:07;;;;;;;0.30;0.20;;;;;;;10.21;90.04;100317.91;5011591;28;20496;-49
2024/02/06 11:25:35;;;;;;;0.30;0.20;;;;;;;10.35;89.70;100329.03;5009407;28;20459;-50
2024/02/06 11:28:03;;;;;;;0.30;0.20;;;;;;;10.33;89.10;100322.03;5011398;28;20456;-49
2024/02/06 11:30:32;;;;;;;0.30;0.20;;;;;;;10.37;88.98;100329.84;5011483;28;20535;-49
2024/02/06 11:33:04;;;;;;;0.30;0.20;;;;;;;10.33;89.81;100320.25;5011503;28;21076;-50
2024/02/06 11:35:31;;;;;;;0.30;0.20;;;;;;;10.47;88.92;100308.34;5011656;28;20455;-50